createdAt,value
2022-09-06T00:01:26.019Z,0
2022-09-06T00:03:27.221Z,0
2022-09-06T00:05:28.771Z,0
2022-09-06T00:07:30.083Z,0
2022-09-06T00:09:31.604Z,0
2022-09-06T00:13:34.637Z,0
2022-09-06T00:15:35.839Z,0
2022-09-06T00:17:37.563Z,0
2022-09-06T00:19:38.779Z,0
2022-09-06T00:23:41.162Z,0
2022-09-06T00:25:42.769Z,0
2022-09-06T00:27:43.749Z,0
2022-09-06T00:33:47.830Z,0
2022-09-06T00:35:49.074Z,0
2022-09-06T00:37:50.947Z,0
2022-09-06T00:39:52.412Z,0
2022-09-06T00:41:54.172Z,0
2022-09-06T00:43:55.753Z,0
2022-09-06T00:45:57.255Z,0
2022-09-06T00:47:58.414Z,0
2022-09-06T00:50:00.269Z,0
2022-09-06T00:52:01.527Z,0
2022-09-06T00:54:02.513Z,0
2022-09-06T00:56:03.696Z,0
2022-09-06T00:58:04.846Z,0
2022-09-06T01:00:06.167Z,0
2022-09-06T01:02:07.967Z,0
2022-09-06T01:04:09.040Z,0
2022-09-06T01:06:10.562Z,0
2022-09-06T01:08:12.427Z,0
2022-09-06T01:12:15.519Z,0
2022-09-06T01:14:17.181Z,0
2022-09-06T01:16:18.903Z,0
2022-09-06T01:18:20.411Z,0
2022-09-06T01:22:23.352Z,0
2022-09-06T01:24:24.683Z,0
2022-09-06T01:26:25.686Z,0
2022-09-06T01:28:27.130Z,0
2022-09-06T01:30:28.416Z,0
2022-09-06T01:32:30.136Z,0
2022-09-06T01:34:31.725Z,0
2022-09-06T01:36:32.973Z,0
2022-09-06T01:38:34.319Z,0
2022-09-06T01:40:35.550Z,0
2022-09-06T01:42:36.545Z,0
2022-09-06T01:44:37.520Z,0
2022-09-06T01:46:39.136Z,0
2022-09-06T01:50:41.187Z,0
2022-09-06T01:54:44.577Z,0
2022-09-06T01:56:46.052Z,0
2022-09-06T01:58:47.025Z,0
2022-09-06T01:59:30.809Z,0
2022-09-06T02:01:32.120Z,0
2022-09-06T02:03:33.188Z,0
2022-09-06T02:05:34.148Z,0
2022-09-06T02:09:36.909Z,0
2022-09-06T02:11:38.579Z,0
2022-09-06T02:13:40.282Z,0
2022-09-06T02:15:41.326Z,0
2022-09-06T02:17:42.346Z,0
2022-09-06T02:19:43.448Z,0
2022-09-06T02:21:44.951Z,0
2022-09-06T02:23:46.874Z,0
2022-09-06T02:25:48.332Z,0
2022-09-06T02:27:49.982Z,0
2022-09-06T02:29:51.567Z,0
2022-09-06T02:31:52.975Z,0
2022-09-06T02:33:54.095Z,0
2022-09-06T02:35:55.482Z,0
2022-09-06T02:37:56.512Z,0
2022-09-06T02:39:58.471Z,0
2022-09-06T02:41:59.429Z,0
2022-09-06T02:44:01.224Z,0
2022-09-06T02:46:02.736Z,0
2022-09-06T02:48:03.987Z,0
2022-09-06T02:52:06.634Z,0
2022-09-06T02:54:07.872Z,0
2022-09-06T02:56:09.328Z,0
2022-09-06T02:58:10.459Z,0
2022-09-06T03:00:11.656Z,0
2022-09-06T03:02:13.278Z,0
2022-09-06T03:04:14.208Z,0
2022-09-06T03:06:15.278Z,0
2022-09-06T03:08:16.566Z,0
2022-09-06T03:10:18.380Z,0
2022-09-06T03:12:19.765Z,0
2022-09-06T03:14:21.117Z,0
2022-09-06T03:16:22.552Z,0.28
2022-09-06T03:18:24.291Z,1.263
2022-09-06T03:20:25.744Z,2.106
2022-09-06T03:22:27.470Z,6.879
2022-09-06T03:24:29.052Z,0.982
2022-09-06T03:26:30.496Z,5.475
2022-09-06T03:28:31.737Z,8.424
2022-09-06T03:32:34.858Z,0.842
2022-09-06T03:34:35.993Z,0
2022-09-06T03:36:36.923Z,1.965
2022-09-06T03:38:38.206Z,0
2022-09-06T03:40:39.605Z,2.106
2022-09-06T03:42:41.396Z,0
2022-09-06T03:44:42.761Z,0.421
2022-09-06T03:46:44.646Z,0.702
2022-09-06T03:48:45.549Z,2.667
2022-09-06T03:50:47.296Z,0
2022-09-06T03:52:48.954Z,0
2022-09-06T03:54:50.150Z,0.561
2022-09-06T03:56:51.209Z,0
2022-09-06T03:58:53.066Z,2.386
2022-09-06T04:00:54.187Z,1.404
2022-09-06T04:02:58.620Z,0.14
2022-09-06T04:04:57.275Z,0
2022-09-06T04:06:59.069Z,0
2022-09-06T04:09:00.891Z,0.842
2022-09-06T04:11:01.814Z,0
2022-09-06T04:13:03.404Z,0
2022-09-06T04:15:05.053Z,0
2022-09-06T04:17:05.972Z,0
2022-09-06T04:19:07.749Z,0
2022-09-06T04:21:08.741Z,0.561
2022-09-06T04:23:10.143Z,1.825
2022-09-06T04:25:11.735Z,1.263
2022-09-06T04:27:12.663Z,1.684
2022-09-06T04:29:14.554Z,0
2022-09-06T04:31:15.685Z,3.65
2022-09-06T04:33:17.141Z,4.492
2022-09-06T04:35:18.659Z,1.544
2022-09-06T04:37:19.598Z,1.684
2022-09-06T04:39:21.142Z,1.123
2022-09-06T04:41:22.850Z,1.684
2022-09-06T04:43:24.607Z,1.123
2022-09-06T04:45:25.713Z,0
2022-09-06T04:47:27.345Z,0
2022-09-06T04:49:28.792Z,0
2022-09-06T04:51:30.630Z,0.28
2022-09-06T04:53:32.319Z,0
2022-09-06T04:55:33.682Z,0
2022-09-06T04:57:34.883Z,1.263
2022-09-06T04:59:36.322Z,0.982
2022-09-06T05:01:37.798Z,0
2022-09-06T05:05:40.430Z,0
2022-09-06T05:07:42.165Z,0
2022-09-06T05:09:43.732Z,0
2022-09-06T05:13:46.026Z,0
2022-09-06T05:15:47.463Z,0.702
2022-09-06T05:17:49.265Z,2.106
2022-09-06T05:19:50.471Z,0.28
2022-09-06T05:21:52.181Z,0.421
2022-09-06T05:23:56.656Z,0
2022-09-06T05:25:54.943Z,0
2022-09-06T05:27:56.002Z,0
2022-09-06T05:29:57.416Z,0
2022-09-06T05:31:59.123Z,0
2022-09-06T05:34:00.609Z,0
2022-09-06T05:36:01.704Z,0
2022-09-06T05:38:03.261Z,0
2022-09-06T05:40:04.205Z,0
2022-09-06T05:42:05.955Z,0.14
2022-09-06T05:46:08.586Z,0
2022-09-06T05:48:10.263Z,0
2022-09-06T05:50:12.060Z,0
2022-09-06T05:54:15.341Z,0
2022-09-06T05:56:16.682Z,0.14
2022-09-06T05:58:17.661Z,0
2022-09-06T06:00:19.329Z,0
2022-09-06T06:02:20.719Z,0.561
2022-09-06T06:04:22.394Z,0.28
2022-09-06T06:06:23.985Z,0.28
2022-09-06T06:08:25.553Z,0
2022-09-06T06:10:26.384Z,2.386
2022-09-06T06:12:28.030Z,0.702
2022-09-06T06:14:29.238Z,0
2022-09-06T06:16:31.091Z,1.263
2022-09-06T06:18:32.342Z,0
2022-09-06T06:20:33.356Z,0.842
2022-09-06T06:22:34.522Z,0.28
2022-09-06T06:24:35.470Z,0.842
2022-09-06T06:28:38.342Z,2.527
2022-09-06T06:30:39.773Z,2.948
2022-09-06T06:32:40.821Z,0.14
2022-09-06T06:34:42.259Z,0.561
2022-09-06T06:36:43.894Z,0.14
2022-09-06T06:38:45.726Z,0.14
2022-09-06T06:40:47.228Z,0
2022-09-06T06:42:48.565Z,0
2022-09-06T06:44:50.040Z,0
2022-09-06T06:46:51.800Z,0
2022-09-06T06:48:55.019Z,0
2022-09-06T06:50:54.366Z,0
2022-09-06T06:54:56.923Z,0
2022-09-06T06:56:57.971Z,0
2022-09-06T06:58:59.538Z,0
2022-09-06T07:01:01.466Z,0
2022-09-06T07:03:02.225Z,0
2022-09-06T07:07:35.472Z,0
2022-09-06T07:09:07.155Z,0
2022-09-06T07:11:08.787Z,0.28
2022-09-06T07:13:10.297Z,0
2022-09-06T07:15:11.737Z,0
2022-09-06T07:17:12.740Z,0
2022-09-06T07:21:39.039Z,0
2022-09-06T07:25:21.357Z,0
2022-09-06T07:29:21.433Z,0
2022-09-06T07:33:23.703Z,0
2022-09-06T07:35:24.518Z,0
2022-09-06T07:37:25.551Z,0
2022-09-06T07:39:26.976Z,0
2022-09-06T07:41:27.720Z,0
2022-09-06T07:43:29.545Z,0
2022-09-06T07:45:31.136Z,0
2022-09-06T07:47:57.663Z,1.263
2022-09-06T07:49:34.294Z,1.263
2022-09-06T07:51:35.173Z,0
2022-09-06T07:53:37.200Z,0.702
2022-09-06T07:55:37.937Z,0.14
2022-09-06T07:57:39.006Z,1.544
2022-09-06T08:01:42.021Z,1.544
2022-09-06T08:03:43.096Z,1.263
2022-09-06T08:06:09.929Z,0.421
2022-09-06T08:09:47.314Z,1.404
2022-09-06T08:11:48.662Z,0
2022-09-06T08:13:50.021Z,1.263
2022-09-06T08:15:51.171Z,0.702
2022-09-06T08:17:52.888Z,1.123
2022-09-06T08:21:55.918Z,0.702
2022-09-06T08:23:57.182Z,0
2022-09-06T08:25:58.043Z,0
2022-09-06T08:27:59.675Z,0.14
2022-09-06T08:30:01.406Z,0
2022-09-06T08:32:02.656Z,1.404
2022-09-06T08:34:04.023Z,2.246
2022-09-06T08:36:05.425Z,1.123
2022-09-06T08:38:06.510Z,0
2022-09-06T08:40:08.192Z,1.684
2022-09-06T08:42:09.344Z,1.965
2022-09-06T08:46:56.212Z,0.14
2022-09-06T08:48:57.500Z,0.702
2022-09-06T08:50:59.072Z,0
2022-09-06T08:55:02.107Z,0.842
2022-09-06T08:57:03.280Z,2.246
2022-09-06T08:59:04.101Z,2.106
2022-09-06T09:01:05.034Z,1.965
2022-09-06T09:05:07.620Z,0.28
2022-09-06T09:07:08.809Z,0.28
2022-09-06T09:09:10.311Z,1.544
2022-09-06T09:11:11.387Z,3.229
2022-09-06T09:15:13.899Z,1.404
2022-09-06T09:17:15.211Z,1.123
2022-09-06T09:19:16.296Z,0
2022-09-06T09:21:17.547Z,0.561
2022-09-06T09:23:18.645Z,0
2022-09-06T09:25:19.446Z,2.667
2022-09-06T09:27:20.320Z,2.948
2022-09-06T09:29:25.456Z,2.948
2022-09-06T09:31:22.016Z,8.002
2022-09-06T09:33:23.493Z,4.492
2022-09-06T09:35:24.320Z,7.441
2022-09-06T09:37:48.103Z,6.037
2022-09-06T09:39:26.566Z,3.229
2022-09-06T09:41:27.566Z,3.65
2022-09-06T09:43:28.961Z,5.616
2022-09-06T09:45:30.057Z,5.475
2022-09-06T09:47:31.553Z,3.51
2022-09-06T09:49:32.700Z,7.02
2022-09-06T09:51:33.533Z,5.054
2022-09-06T09:53:34.643Z,3.229
2022-09-06T09:55:35.741Z,5.616
2022-09-06T09:57:36.548Z,2.106
2022-09-06T09:59:37.934Z,6.037
2022-09-06T10:01:38.783Z,3.369
2022-09-06T10:05:41.998Z,1.684
2022-09-06T10:07:42.747Z,3.931
2022-09-06T10:09:43.722Z,3.369
2022-09-06T10:13:46.139Z,5.335
2022-09-06T10:15:47.949Z,6.458
2022-09-06T10:17:49.429Z,6.037
2022-09-06T10:19:52.006Z,1.965
2022-09-06T10:21:52.760Z,6.879
2022-09-06T10:25:54.896Z,4.773
2022-09-06T10:29:56.954Z,1.263
2022-09-06T10:31:57.816Z,6.598
2022-09-06T10:33:59.499Z,7.3
2022-09-06T10:36:01.229Z,6.318
2022-09-06T10:38:02.167Z,6.598
2022-09-06T10:40:03.740Z,7.16
2022-09-06T10:42:04.656Z,9.406
2022-09-06T10:46:06.670Z,1.684
2022-09-06T10:48:11.278Z,4.212
2022-09-06T10:50:09.290Z,8.704
2022-09-06T10:52:11.058Z,5.616
2022-09-06T10:54:12.045Z,5.194
2022-09-06T10:56:13.165Z,5.335
2022-09-06T11:00:15.602Z,1.684
2022-09-06T11:02:16.859Z,1.544
2022-09-06T11:04:17.713Z,0.982
2022-09-06T11:06:19.517Z,6.879
2022-09-06T11:08:47.306Z,0.561
2022-09-06T11:12:23.142Z,2.667
2022-09-06T11:14:24.245Z,0
2022-09-06T11:16:25.532Z,2.246
2022-09-06T11:18:27.018Z,4.352
2022-09-06T11:20:31.350Z,2.667
2022-09-06T11:22:28.744Z,2.527
2022-09-06T11:24:29.657Z,4.492
2022-09-06T11:26:30.486Z,2.106
2022-09-06T11:28:31.562Z,0.842
2022-09-06T11:30:32.343Z,5.194
2022-09-06T11:32:33.694Z,3.088
2022-09-06T11:34:34.991Z,0.982
2022-09-06T11:36:36.415Z,2.386
2022-09-06T11:38:37.326Z,5.335
2022-09-06T11:40:39.032Z,5.335
2022-09-06T11:44:41.131Z,9.828
2022-09-06T11:46:42.258Z,4.914
2022-09-06T11:48:43.188Z,6.037
2022-09-06T11:50:44.934Z,2.386
2022-09-06T11:54:47.782Z,3.51
2022-09-06T11:56:49.324Z,4.352
2022-09-06T11:58:50.826Z,3.229
2022-09-06T12:00:51.850Z,8.002
2022-09-06T12:02:53.564Z,3.65
2022-09-06T12:04:56.110Z,2.808
2022-09-06T12:06:55.855Z,3.229
2022-09-06T12:08:56.869Z,4.071
2022-09-06T12:10:57.944Z,3.931
2022-09-06T12:12:59.536Z,0.842
2022-09-06T12:17:01.890Z,5.475
2022-09-06T12:19:02.840Z,6.458
2022-09-06T12:21:04.236Z,1.404
2022-09-06T12:23:05.062Z,3.931
2022-09-06T12:25:06.099Z,2.948
2022-09-06T12:27:07.040Z,7.3
2022-09-06T12:29:07.921Z,7.862
2022-09-06T12:31:10.984Z,4.212
2022-09-06T12:33:09.620Z,6.458
2022-09-06T12:37:12.129Z,7.441
2022-09-06T12:39:13.616Z,5.194
2022-09-06T12:41:14.945Z,1.965
2022-09-06T12:43:16.379Z,2.527
2022-09-06T12:45:17.187Z,4.773
2022-09-06T12:47:18.569Z,13.057
2022-09-06T12:49:20.935Z,8.985
2022-09-06T12:55:23.092Z,7.16
2022-09-06T12:57:24.168Z,4.914
2022-09-06T12:59:25.097Z,3.65
2022-09-06T13:01:26.145Z,1.825
2022-09-06T13:03:27.003Z,4.212
2022-09-06T13:05:27.996Z,5.756
2022-09-06T13:07:29.456Z,4.352
2022-09-06T13:09:31.059Z,4.492
2022-09-06T13:11:31.893Z,12.074
2022-09-06T13:13:33.166Z,2.527
2022-09-06T13:15:34.803Z,4.633
2022-09-06T13:17:35.489Z,6.177
2022-09-06T13:19:36.522Z,4.773
2022-09-06T13:21:38.085Z,10.67
2022-09-06T13:23:39.077Z,4.773
2022-09-06T13:25:40.592Z,3.369
2022-09-06T13:27:41.533Z,5.335
2022-09-06T13:29:42.342Z,4.071
2022-09-06T13:31:43.274Z,2.527
2022-09-06T13:33:43.979Z,4.914
2022-09-06T13:35:45.365Z,2.386
2022-09-06T13:37:47.023Z,6.739
2022-09-06T13:39:47.937Z,6.177
2022-09-06T13:41:48.836Z,8.002
2022-09-06T13:43:50.344Z,5.054
2022-09-06T13:45:52.086Z,6.879
2022-09-06T13:48:03.327Z,4.492
2022-09-06T13:49:54.915Z,6.598
2022-09-06T13:51:56.203Z,3.79
2022-09-06T13:55:57.801Z,6.037
2022-09-06T13:57:58.634Z,5.616
2022-09-06T14:00:00.014Z,1.404
2022-09-06T14:02:01.672Z,1.825
2022-09-06T14:06:03.783Z,3.79
2022-09-06T14:08:04.562Z,3.51
2022-09-06T14:10:06.025Z,4.212
2022-09-06T14:12:07.416Z,2.527
2022-09-06T14:14:08.408Z,1.965
2022-09-06T14:16:09.614Z,6.318
2022-09-06T14:18:13.861Z,7.02
2022-09-06T14:20:11.481Z,2.106
2022-09-06T14:22:13.049Z,2.808
2022-09-06T14:24:13.980Z,3.088
2022-09-06T14:26:14.911Z,2.667
2022-09-06T14:28:15.723Z,0.842
2022-09-06T14:30:17.126Z,1.263
2022-09-06T14:32:21.833Z,1.263
2022-09-06T14:34:19.075Z,0.14
2022-09-06T14:36:20.501Z,0.561
2022-09-06T14:38:22.615Z,3.931
2022-09-06T14:40:24.304Z,4.492
2022-09-06T14:42:25.482Z,3.79
2022-09-06T14:44:26.993Z,1.263
2022-09-06T14:46:27.889Z,5.896
2022-09-06T14:48:28.812Z,4.352
2022-09-06T14:50:30.280Z,3.931
2022-09-06T14:54:32.198Z,5.194
2022-09-06T14:56:33.592Z,8.845
2022-09-06T14:58:34.446Z,4.492
2022-09-06T15:00:35.300Z,6.739
2022-09-06T15:04:37.990Z,7.16
2022-09-06T15:06:39.424Z,7.722
2022-09-06T15:08:40.785Z,5.896
2022-09-06T15:10:42.334Z,6.598
2022-09-06T15:12:43.283Z,4.212
2022-09-06T15:14:44.230Z,4.352
2022-09-06T15:16:45.797Z,0.28
2022-09-06T15:18:47.168Z,0.982
2022-09-06T15:20:48.931Z,0.14
2022-09-06T15:22:53.360Z,1.684
2022-09-06T15:24:51.684Z,0.421
2022-09-06T15:26:53.361Z,0
2022-09-06T15:28:55.021Z,0
2022-09-06T15:30:56.833Z,0
2022-09-06T15:31:40.504Z,0.561
2022-09-06T15:33:41.583Z,2.667
2022-09-06T15:35:42.377Z,1.684
2022-09-06T15:37:43.385Z,1.544
2022-09-06T15:39:44.334Z,0.982
2022-09-06T15:41:45.672Z,2.246
2022-09-06T15:43:46.856Z,1.123
2022-09-06T15:45:47.723Z,0.842
2022-09-06T15:47:48.807Z,1.684
2022-09-06T15:49:50.122Z,2.386
2022-09-06T15:51:51.833Z,2.667
2022-09-06T15:53:52.759Z,4.071
2022-09-06T15:55:53.793Z,0
2022-09-06T15:57:54.951Z,1.404
2022-09-06T15:59:56.614Z,0.421
2022-09-06T16:01:58.195Z,0.702
2022-09-06T16:03:59.392Z,0
2022-09-06T16:06:28.592Z,0
2022-09-06T16:08:02.633Z,0.842
2022-09-06T16:10:03.726Z,2.667
2022-09-06T16:12:04.522Z,0.14
2022-09-06T16:14:05.980Z,2.808
2022-09-06T16:16:07.255Z,4.212
2022-09-06T16:18:08.669Z,2.246
2022-09-06T16:20:09.598Z,3.229
2022-09-06T16:22:11.376Z,2.386
2022-09-06T16:24:12.806Z,2.948
2022-09-06T16:26:15.952Z,0.842
2022-09-06T16:28:16.094Z,2.667
2022-09-06T16:30:17.486Z,3.229
2022-09-06T16:32:18.761Z,0.561
2022-09-06T16:34:20.450Z,1.123
2022-09-06T16:36:21.389Z,0.561
2022-09-06T16:38:22.526Z,1.825
2022-09-06T16:40:23.395Z,0
2022-09-06T16:42:25.041Z,2.527
2022-09-06T16:44:26.401Z,0
2022-09-06T16:46:27.498Z,1.404
2022-09-06T16:48:29.149Z,1.404
2022-09-06T16:50:30.300Z,2.667
2022-09-06T16:52:31.159Z,2.667
2022-09-06T16:54:32.906Z,1.825
2022-09-06T16:56:34.010Z,1.544
2022-09-06T16:58:35.528Z,0.421
2022-09-06T17:00:37.061Z,2.948
2022-09-06T17:02:38.588Z,3.369
2022-09-06T17:04:39.788Z,0.28
2022-09-06T17:06:40.838Z,0
2022-09-06T17:10:43.856Z,0
2022-09-06T17:12:44.760Z,1.544
2022-09-06T17:14:45.958Z,1.263
2022-09-06T17:16:47.826Z,0
2022-09-06T17:18:48.993Z,1.404
2022-09-06T17:20:49.833Z,0
2022-09-06T17:22:51.130Z,0
2022-09-06T17:24:52.030Z,0
2022-09-06T17:26:53.651Z,0
2022-09-06T17:28:54.561Z,3.79
2022-09-06T17:30:55.642Z,3.51
2022-09-06T17:32:56.556Z,0.561
2022-09-06T17:34:57.925Z,1.684
2022-09-06T17:36:58.962Z,0.28
2022-09-06T17:39:00.389Z,2.667
2022-09-06T17:41:01.869Z,1.123
2022-09-06T17:43:03.102Z,0
2022-09-06T17:45:04.084Z,1.263
2022-09-06T17:47:13.878Z,0.421
2022-09-06T17:49:07.159Z,0
2022-09-06T17:51:08.570Z,0
2022-09-06T17:53:10.042Z,0
2022-09-06T17:55:11.615Z,0
2022-09-06T17:57:13.477Z,0
2022-09-06T17:59:15.224Z,0
2022-09-06T18:01:16.334Z,0
2022-09-06T18:03:18.108Z,0
2022-09-06T18:05:19.712Z,0
2022-09-06T18:07:20.657Z,0
2022-09-06T18:11:23.444Z,0
2022-09-06T18:13:24.553Z,0
2022-09-06T18:15:25.892Z,0
2022-09-06T18:17:27.620Z,0
2022-09-06T18:21:30.791Z,0
2022-09-06T18:23:32.095Z,0
2022-09-06T18:25:33.427Z,0
2022-09-06T18:27:34.658Z,0
2022-09-06T18:29:35.804Z,0
2022-09-06T18:31:37.375Z,0
2022-09-06T18:33:38.544Z,0
2022-09-06T18:35:39.864Z,0
2022-09-06T18:37:41.706Z,0
2022-09-06T18:39:43.260Z,0
2022-09-06T18:41:44.698Z,3.79
2022-09-06T18:43:46.370Z,0
2022-09-06T18:45:48.273Z,2.106
2022-09-06T18:47:49.506Z,0.702
2022-09-06T18:49:51.049Z,1.965
2022-09-06T18:51:52.706Z,0
2022-09-06T18:53:54.085Z,0
2022-09-06T18:55:55.908Z,0
2022-09-06T18:59:58.682Z,0
2022-09-06T19:04:01.551Z,0
2022-09-06T19:06:03.428Z,0
2022-09-06T19:08:04.457Z,1.544
2022-09-06T19:10:06.232Z,0
2022-09-06T19:12:07.269Z,0.28
2022-09-06T19:14:08.758Z,0
2022-09-06T19:16:09.908Z,0
2022-09-06T19:18:11.368Z,0
2022-09-06T19:20:12.852Z,0
2022-09-06T19:22:14.012Z,0
2022-09-06T19:24:15.486Z,0
2022-09-06T19:26:16.632Z,0
2022-09-06T19:28:18.233Z,0
2022-09-06T19:30:28.027Z,0
2022-09-06T19:32:21.231Z,0
2022-09-06T19:34:22.538Z,0
2022-09-06T19:36:24.311Z,0
2022-09-06T19:38:25.551Z,0
2022-09-06T19:40:27.168Z,0
2022-09-06T19:42:28.306Z,0
2022-09-06T19:44:30.085Z,0
2022-09-06T19:46:31.837Z,0
2022-09-06T19:48:33.000Z,0
2022-09-06T19:50:34.770Z,0
2022-09-06T19:52:36.236Z,0
2022-09-06T19:54:37.218Z,0
2022-09-06T19:56:38.387Z,0
2022-09-06T19:58:39.601Z,0
2022-09-06T20:00:40.542Z,0
2022-09-06T20:02:41.902Z,0
2022-09-06T20:04:42.883Z,0
2022-09-06T20:06:44.506Z,0
2022-09-06T20:08:45.893Z,0
2022-09-06T20:10:46.844Z,0.28
2022-09-06T20:12:48.637Z,0
2022-09-06T20:14:49.713Z,0
2022-09-06T20:16:51.230Z,0
2022-09-06T20:18:52.046Z,0
2022-09-06T20:20:53.579Z,0
2022-09-06T20:24:56.610Z,0
2022-09-06T20:26:57.564Z,0
2022-09-06T20:28:59.041Z,0
2022-09-06T20:31:00.308Z,0
2022-09-06T20:33:01.571Z,0
2022-09-06T20:35:02.591Z,1.263
2022-09-06T20:37:04.237Z,0
2022-09-06T20:39:05.533Z,0
2022-09-06T20:41:06.939Z,0
2022-09-06T20:45:09.510Z,0
2022-09-06T20:47:10.744Z,0
2022-09-06T20:49:11.987Z,0
2022-09-06T20:51:13.103Z,0
2022-09-06T20:53:14.151Z,0
2022-09-06T20:55:15.812Z,0
2022-09-06T20:57:17.125Z,0
2022-09-06T20:59:18.996Z,0
2022-09-06T21:01:20.548Z,0
2022-09-06T21:03:21.921Z,0
2022-09-06T21:05:23.587Z,0
2022-09-06T21:07:25.101Z,0
2022-09-06T21:09:26.799Z,0
2022-09-06T21:11:27.698Z,0
2022-09-06T21:13:29.443Z,0
2022-09-06T21:15:30.368Z,0
2022-09-06T21:17:31.980Z,0
2022-09-06T21:19:33.712Z,0
2022-09-06T21:21:35.291Z,0
2022-09-06T21:23:36.248Z,0
2022-09-06T21:25:37.475Z,0
2022-09-06T21:27:38.974Z,0
2022-09-06T21:29:39.993Z,0
2022-09-06T21:33:42.911Z,0
2022-09-06T21:35:44.717Z,0
2022-09-06T21:37:46.349Z,0
2022-09-06T21:39:47.720Z,0
2022-09-06T21:41:49.367Z,0
2022-09-06T21:45:52.055Z,0
2022-09-06T21:47:53.788Z,0
2022-09-06T21:49:55.555Z,0
2022-09-06T21:51:56.775Z,0
2022-09-06T21:55:59.798Z,1.544
2022-09-06T21:58:01.190Z,3.931
2022-09-06T22:00:02.918Z,3.51
2022-09-06T22:02:04.279Z,0
2022-09-06T22:04:06.045Z,0
2022-09-06T22:06:07.201Z,0
2022-09-06T22:08:08.524Z,0
2022-09-06T22:10:09.850Z,0
2022-09-06T22:12:11.255Z,0
2022-09-06T22:14:12.576Z,0
2022-09-06T22:16:14.287Z,0
2022-09-06T22:16:58.007Z,0
2022-09-06T22:18:59.434Z,0
2022-09-06T22:21:00.327Z,0
2022-09-06T22:23:01.245Z,1.825
2022-09-06T22:25:03.018Z,3.229
2022-09-06T22:27:04.661Z,2.386
2022-09-06T22:29:06.025Z,0
2022-09-06T22:31:07.059Z,1.123
2022-09-06T22:33:08.203Z,0.702
2022-09-06T22:35:09.373Z,0
2022-09-06T22:37:11.150Z,0.14
2022-09-06T22:39:12.735Z,1.123
2022-09-06T22:41:14.489Z,2.106
2022-09-06T22:43:15.913Z,0.702
2022-09-06T22:45:17.115Z,0
2022-09-06T22:47:18.276Z,0
2022-09-06T22:49:19.640Z,0
2022-09-06T22:53:22.766Z,1.123
2022-09-06T22:55:23.984Z,1.825
2022-09-06T22:57:25.149Z,0.421
2022-09-06T22:59:26.938Z,0
2022-09-06T23:01:28.002Z,0
2022-09-06T23:03:29.133Z,0.561
2022-09-06T23:05:30.341Z,0
2022-09-06T23:07:31.910Z,0
2022-09-06T23:09:33.523Z,0
2022-09-06T23:11:35.065Z,0
2022-09-06T23:15:37.338Z,0
2022-09-06T23:17:38.478Z,0
2022-09-06T23:19:39.857Z,0
2022-09-06T23:21:41.339Z,0
2022-09-06T23:25:43.885Z,1.123
2022-09-06T23:27:45.019Z,1.263
2022-09-06T23:29:46.843Z,0.561
2022-09-06T23:31:48.115Z,0
2022-09-06T23:35:51.331Z,0
2022-09-06T23:37:53.194Z,0
2022-09-06T23:39:54.573Z,0
2022-09-06T23:41:56.363Z,0
2022-09-06T23:45:59.004Z,0
2022-09-06T23:48:00.649Z,0
2022-09-06T23:50:01.698Z,0
2022-09-06T23:52:03.080Z,0
2022-09-06T23:54:04.468Z,0
2022-09-06T23:56:06.215Z,0
2022-09-06T23:58:07.439Z,0
